Terminal Aerodrome Forecast
Issued by NWS

Home | Current Version | Previous Version | Text Only | Print | Product List | Glossary On
Versions: 1 2 3 4 5 6 7 8 9 10 11 12 13
000
FTUS45 KGJT 171735
TAFRIL
TAF
KRIL 171735Z 1718/1818 35005KT P6SM SCT130
      TEMPO 1720/1724 29010G18KT P6SM SCT110
     FM180200 22007KT P6SM SCT200
     FM180300 15006KT P6SM SCT200
     FM180800 08004KT P6SM SCT200
     FM181200 VRB03KT P6SM SKC=

USA.gov is the U.S. government's official web portal to all federal, state and local government web resources and services.